createdAt,value
2023-04-28T00:00:13.004Z,2.40
2023-04-28T00:01:17.360Z,2.70
2023-04-28T00:02:21.720Z,2.80
2023-04-28T00:03:24.918Z,3.00
2023-04-28T00:04:27.563Z,1.90
2023-04-28T00:05:30.197Z,1.80
2023-04-28T00:06:32.313Z,2.70
2023-04-28T00:07:34.439Z,3.00
2023-04-28T00:08:36.923Z,2.30
2023-04-28T00:09:39.087Z,2.10
2023-04-28T00:10:41.560Z,2.40
2023-04-28T00:11:46.729Z,2.50
2023-04-28T00:12:48.945Z,1.80
2023-04-28T00:13:51.208Z,2.30
2023-04-28T00:14:53.407Z,2.10
2023-04-28T00:15:56.008Z,3.10
2023-04-28T00:16:58.655Z,3.40
2023-04-28T00:18:00.899Z,2.70
2023-04-28T00:19:03.134Z,3.00
2023-04-28T00:20:06.930Z,2.30
2023-04-28T00:21:09.496Z,2.60
2023-04-28T00:22:11.669Z,0.20
2023-04-28T00:23:13.873Z,2.40
2023-04-28T00:24:16.106Z,2.80
2023-04-28T00:25:18.493Z,2.40
2023-04-28T00:26:20.540Z,2.30
2023-04-28T00:27:23.330Z,2.70
2023-04-28T00:29:29.967Z,1.90
2023-04-28T00:30:32.606Z,2.00
2023-04-28T00:31:35.315Z,2.90
2023-04-28T00:32:37.927Z,2.45
2023-04-28T00:33:40.757Z,2.50
2023-04-28T00:34:43.467Z,2.00
2023-04-28T00:35:45.743Z,2.60
2023-04-28T00:36:48.381Z,2.50
2023-04-28T00:37:50.456Z,3.00
2023-04-28T00:38:53.323Z,1.70
2023-04-28T00:39:56.121Z,2.00
2023-04-28T00:40:58.570Z,2.40
2023-04-28T00:42:00.631Z,3.00
2023-04-28T00:43:03.686Z,2.50
2023-04-28T00:44:06.096Z,3.00
2023-04-28T00:45:08.990Z,2.90
2023-04-28T00:46:28.655Z,2.40
2023-04-28T00:47:33.535Z,2.80
2023-04-28T00:48:36.090Z,2.00
2023-04-28T00:49:38.756Z,2.50
2023-04-28T00:50:43.030Z,1.60
2023-04-28T00:51:45.768Z,2.70
2023-04-28T00:52:48.226Z,1.91
2023-04-28T00:53:51.092Z,2.00
2023-04-28T00:54:54.871Z,2.55
2023-04-28T00:55:57.914Z,2.40
2023-04-28T00:57:01.837Z,2.30
2023-04-28T00:58:07.927Z,2.00
2023-04-28T00:59:10.251Z,1.90
2023-04-28T01:00:13.398Z,1.90
2023-04-28T01:01:15.777Z,2.00
2023-04-28T01:02:18.183Z,2.30
2023-04-28T01:03:21.620Z,1.90
2023-04-28T01:04:24.868Z,2.27
2023-04-28T01:05:28.836Z,0.20
2023-04-28T01:06:32.900Z,2.30
2023-04-28T01:07:35.494Z,3.10
2023-04-28T01:08:38.529Z,1.90
2023-04-28T01:09:42.417Z,1.70
2023-04-28T01:10:44.902Z,2.70
2023-04-28T01:11:48.898Z,2.10
2023-04-28T01:12:55.499Z,2.30
2023-04-28T01:13:58.176Z,2.70
2023-04-28T01:15:02.578Z,3.00
2023-04-28T01:16:06.852Z,2.00
2023-04-28T01:17:09.955Z,2.70
2023-04-28T01:18:12.763Z,1.80
2023-04-28T01:19:18.868Z,2.30
2023-04-28T01:20:21.479Z,1.80
2023-04-28T01:21:28.120Z,2.60
2023-04-28T01:22:30.830Z,2.00
2023-04-28T01:23:33.039Z,2.00
2023-04-28T01:24:35.302Z,2.50
2023-04-28T01:25:40.041Z,3.90
2023-04-28T01:26:43.757Z,2.30
2023-04-28T01:27:46.627Z,2.10
2023-04-28T01:28:50.615Z,2.90
2023-04-28T01:29:53.035Z,2.40
2023-04-28T01:30:55.163Z,2.50
2023-04-28T01:31:57.884Z,2.10
2023-04-28T01:33:00.564Z,2.00
2023-04-28T01:34:02.972Z,2.40
2023-04-28T01:35:05.587Z,2.10
2023-04-28T01:36:10.501Z,2.70
2023-04-28T01:37:12.752Z,2.10
2023-04-28T01:38:14.813Z,2.40
2023-04-28T01:39:17.388Z,2.30
2023-04-28T01:40:19.677Z,1.90
2023-04-28T01:41:21.824Z,2.20
2023-04-28T01:42:24.604Z,2.10
2023-04-28T01:43:26.572Z,2.50
2023-04-28T01:44:28.822Z,3.10
2023-04-28T01:45:31.497Z,2.50
2023-04-28T01:46:34.614Z,2.60
2023-04-28T01:47:37.175Z,2.10
2023-04-28T01:48:39.596Z,2.30
2023-04-28T01:49:41.783Z,1.50
2023-04-28T01:50:45.904Z,2.00
2023-04-28T01:51:51.748Z,2.00
2023-04-28T01:52:54.069Z,2.00
2023-04-28T01:53:58.030Z,2.00
2023-04-28T01:55:00.799Z,2.30
2023-04-28T01:56:03.605Z,2.50
2023-04-28T01:57:05.723Z,3.00
2023-04-28T01:59:17.374Z,1.40
2023-04-28T02:00:20.255Z,2.60
2023-04-28T02:01:26.951Z,3.10
2023-04-28T02:02:30.968Z,2.30
2023-04-28T02:03:34.131Z,2.50
2023-04-28T02:04:39.099Z,2.00
2023-04-28T02:05:43.198Z,1.90
2023-04-28T02:06:46.479Z,2.00
2023-04-28T02:07:48.801Z,2.00
2023-04-28T02:08:51.091Z,1.90
2023-04-28T02:09:53.886Z,2.90
2023-04-28T02:10:57.366Z,2.09
2023-04-28T02:12:00.402Z,2.40
2023-04-28T02:13:03.078Z,2.64
2023-04-28T02:14:05.268Z,2.20
2023-04-28T02:15:08.366Z,3.00
2023-04-28T02:16:11.011Z,2.80
2023-04-28T02:18:22.687Z,2.20
2023-04-28T02:19:24.948Z,2.10
2023-04-28T02:20:27.230Z,2.10
2023-04-28T02:21:30.688Z,2.50
2023-04-28T02:22:33.025Z,2.10
2023-04-28T02:23:35.316Z,1.60
2023-04-28T02:24:39.912Z,1.90
2023-04-28T02:25:42.467Z,1.73
2023-04-28T02:26:46.776Z,2.70
2023-04-28T02:27:49.152Z,2.10
2023-04-28T02:28:52.578Z,3.00
2023-04-28T02:29:55.038Z,2.00
2023-04-28T02:31:10.765Z,2.60
2023-04-28T02:32:13.650Z,2.90
2023-04-28T02:33:15.891Z,1.27
2023-04-28T02:34:18.101Z,2.00
2023-04-28T02:35:20.847Z,1.70
2023-04-28T02:36:23.148Z,2.80
2023-04-28T02:37:25.534Z,2.20
2023-04-28T02:38:27.810Z,2.60
2023-04-28T02:39:30.779Z,2.40
2023-04-28T02:40:33.606Z,2.40
2023-04-28T02:41:35.828Z,3.00
2023-04-28T02:42:38.560Z,3.60
2023-04-28T02:43:41.110Z,3.20
2023-04-28T02:44:43.856Z,3.60
2023-04-28T02:45:45.970Z,4.00
2023-04-28T02:46:48.316Z,3.30
2023-04-28T02:47:51.279Z,4.60
2023-04-28T02:48:53.689Z,2.70
2023-04-28T02:49:55.883Z,4.20
2023-04-28T02:50:58.399Z,3.30
2023-04-28T02:52:00.753Z,2.60
2023-04-28T02:53:03.873Z,3.70
2023-04-28T02:54:06.763Z,3.70
2023-04-28T02:55:09.090Z,3.00
2023-04-28T02:56:11.868Z,3.18
2023-04-28T02:57:14.670Z,3.80
2023-04-28T02:58:17.033Z,3.45
2023-04-28T02:59:19.607Z,3.50
2023-04-28T03:00:21.936Z,3.00
2023-04-28T03:01:24.978Z,3.50
2023-04-28T03:02:27.616Z,3.50
2023-04-28T03:03:30.456Z,3.80
2023-04-28T03:04:33.261Z,2.60
2023-04-28T03:05:35.877Z,4.70
2023-04-28T03:06:38.157Z,4.30
2023-04-28T03:07:40.804Z,3.70
2023-04-28T03:08:43.475Z,4.50
2023-04-28T03:09:46.295Z,4.40
2023-04-28T03:10:48.566Z,4.64
2023-04-28T03:11:51.393Z,3.00
2023-04-28T03:12:53.626Z,3.73
2023-04-28T03:13:56.523Z,3.70
2023-04-28T03:14:59.216Z,2.82
2023-04-28T03:16:01.511Z,3.60
2023-04-28T03:17:03.703Z,3.40
2023-04-28T03:18:06.184Z,3.80
2023-04-28T03:19:08.540Z,2.80
2023-04-28T03:20:12.156Z,3.00
2023-04-28T03:21:14.885Z,3.60
2023-04-28T03:22:17.292Z,2.50
2023-04-28T03:23:20.153Z,3.70
2023-04-28T03:24:22.362Z,3.73
2023-04-28T03:25:26.311Z,3.50
2023-04-28T03:26:29.162Z,3.30
2023-04-28T03:27:31.485Z,3.20
2023-04-28T03:28:33.933Z,3.90
2023-04-28T03:29:36.684Z,2.50
2023-04-28T03:30:39.964Z,2.70
2023-04-28T03:31:42.691Z,2.80
2023-04-28T03:32:45.072Z,3.00
2023-04-28T03:33:47.325Z,4.40
2023-04-28T03:34:50.942Z,2.60
2023-04-28T03:35:53.820Z,4.60
2023-04-28T03:36:56.236Z,5.20
2023-04-28T03:38:00.214Z,5.30
2023-04-28T03:39:02.900Z,5.10
2023-04-28T03:40:08.617Z,5.30
2023-04-28T03:41:30.769Z,4.40
2023-04-28T03:42:50.950Z,4.00
2023-04-28T03:43:55.341Z,4.00
2023-04-28T03:45:02.288Z,4.20
2023-04-28T03:47:14.848Z,4.40
2023-04-28T03:48:16.954Z,4.20
2023-04-28T03:49:19.347Z,4.00
2023-04-28T03:50:21.694Z,4.00
2023-04-28T03:52:33.811Z,3.60
2023-04-28T03:53:35.881Z,3.80
2023-04-28T03:54:38.081Z,3.50
2023-04-28T03:55:41.017Z,4.20
2023-04-28T03:56:56.753Z,3.00
2023-04-28T03:57:58.981Z,3.70
2023-04-28T03:59:01.619Z,3.20
2023-04-28T04:00:10.692Z,3.30
2023-04-28T04:01:14.800Z,3.30
2023-04-28T04:02:17.124Z,3.40
2023-04-28T04:03:20.220Z,3.90
2023-04-28T04:05:32.461Z,3.00
2023-04-28T04:07:45.461Z,4.00
2023-04-28T04:08:48.292Z,3.50
2023-04-28T04:09:51.568Z,3.27
2023-04-28T04:10:53.725Z,3.50
2023-04-28T04:11:55.993Z,3.20
2023-04-28T04:12:59.015Z,3.60
2023-04-28T04:15:11.094Z,4.10
2023-04-28T04:16:13.944Z,3.55
2023-04-28T04:17:16.290Z,3.40
2023-04-28T04:18:18.557Z,3.90
2023-04-28T04:19:39.691Z,3.50
2023-04-28T04:20:42.061Z,3.82
2023-04-28T04:21:44.329Z,3.50
2023-04-28T04:22:46.390Z,4.50
2023-04-28T04:23:49.343Z,3.82
2023-04-28T04:24:52.595Z,3.90
2023-04-28T04:25:55.371Z,3.80
2023-04-28T04:26:58.645Z,3.40
2023-04-28T04:28:05.460Z,2.60
2023-04-28T04:29:08.506Z,3.00
2023-04-28T04:30:11.569Z,2.90
2023-04-28T04:31:14.221Z,2.60
2023-04-28T04:32:16.403Z,4.00
2023-04-28T04:33:18.664Z,3.00
2023-04-28T04:34:21.052Z,3.40
2023-04-28T04:35:23.323Z,2.80
2023-04-28T04:36:26.357Z,3.50
2023-04-28T04:37:29.047Z,3.50
2023-04-28T04:38:35.587Z,3.40
2023-04-28T04:39:39.710Z,3.50
2023-04-28T04:40:41.861Z,3.40
2023-04-28T04:41:45.672Z,3.10
2023-04-28T04:44:00.661Z,4.10
2023-04-28T04:45:06.665Z,3.80
2023-04-28T04:46:08.982Z,3.40
2023-04-28T04:47:11.330Z,4.00
2023-04-28T04:48:13.667Z,4.10
2023-04-28T04:49:17.009Z,4.00
2023-04-28T04:50:19.950Z,2.10
2023-04-28T04:51:22.246Z,3.91
2023-04-28T04:52:24.982Z,4.10
2023-04-28T04:53:27.231Z,3.90
2023-04-28T04:54:30.880Z,3.70
2023-04-28T04:55:33.558Z,4.64
2023-04-28T04:56:36.394Z,5.00
2023-04-28T04:57:40.019Z,4.30
2023-04-28T04:58:44.862Z,3.70
2023-04-28T04:59:49.387Z,5.10
2023-04-28T05:00:53.482Z,5.30
2023-04-28T05:01:56.735Z,3.80
2023-04-28T05:02:59.826Z,4.90
2023-04-28T05:04:02.271Z,4.40
2023-04-28T05:05:19.786Z,3.60
2023-04-28T05:06:11.495Z,5.10
2023-04-28T05:07:19.374Z,5.20
2023-04-28T05:08:21.739Z,4.90
2023-04-28T05:09:23.942Z,4.70
2023-04-28T05:10:26.750Z,4.27
2023-04-28T05:11:29.977Z,5.10
2023-04-28T05:12:32.283Z,4.45
2023-04-28T05:13:35.741Z,6.30
2023-04-28T05:15:48.175Z,2.90
2023-04-28T05:17:01.201Z,4.40
2023-04-28T05:18:05.348Z,4.80
2023-04-28T05:19:09.669Z,4.60
2023-04-28T05:20:12.974Z,4.45
2023-04-28T05:21:15.505Z,5.70
2023-04-28T05:22:17.592Z,4.20
2023-04-28T05:23:20.252Z,3.90
2023-04-28T05:24:23.496Z,3.73
2023-04-28T05:25:27.099Z,4.40
2023-04-28T05:26:30.252Z,3.50
2023-04-28T05:27:34.383Z,3.10
2023-04-28T05:28:36.632Z,3.80
2023-04-28T05:29:38.808Z,4.00
2023-04-28T05:30:40.989Z,3.50
2023-04-28T05:31:43.663Z,2.80
2023-04-28T05:32:45.959Z,2.80
2023-04-28T05:33:48.809Z,4.00
2023-04-28T05:34:50.906Z,3.10
2023-04-28T05:35:53.781Z,2.60
2023-04-28T05:36:56.358Z,2.50
2023-04-28T05:38:00.288Z,3.40
2023-04-28T05:39:02.673Z,3.20
2023-04-28T05:40:06.464Z,2.50
2023-04-28T05:41:09.094Z,2.40
2023-04-28T05:42:11.329Z,2.80
2023-04-28T05:43:14.874Z,2.09
2023-04-28T05:44:19.033Z,2.60
2023-04-28T05:45:21.575Z,3.00
2023-04-28T05:46:30.646Z,3.20
2023-04-28T05:47:28.169Z,2.60
2023-04-28T05:48:31.684Z,2.70
2023-04-28T05:49:35.136Z,3.60
2023-04-28T05:50:39.309Z,3.90
2023-04-28T05:51:41.741Z,3.10
2023-04-28T05:52:43.908Z,3.10
2023-04-28T05:53:46.434Z,2.80
2023-04-28T05:54:49.261Z,2.78
2023-04-28T05:55:51.447Z,1.60
2023-04-28T05:56:54.936Z,2.70
2023-04-28T05:57:57.776Z,1.50
2023-04-28T05:59:00.383Z,2.45
2023-04-28T06:00:03.405Z,3.20
2023-04-28T06:01:07.538Z,2.20
2023-04-28T06:02:09.751Z,2.50
2023-04-28T06:03:13.444Z,2.50
2023-04-28T06:04:17.430Z,2.50
2023-04-28T06:05:21.479Z,2.30
2023-04-28T06:06:26.939Z,3.00
2023-04-28T06:07:29.616Z,2.10
2023-04-28T06:08:32.226Z,2.00
2023-04-28T06:09:34.690Z,1.90
2023-04-28T06:10:37.102Z,2.00
2023-04-28T06:11:39.290Z,1.90
2023-04-28T06:12:41.595Z,2.20
2023-04-28T06:13:43.764Z,1.70
2023-04-28T06:14:46.797Z,2.70
2023-04-28T06:15:48.921Z,1.90
2023-04-28T06:16:51.173Z,3.30
2023-04-28T06:19:03.478Z,2.60
2023-04-28T06:20:07.058Z,3.18
2023-04-28T06:21:09.656Z,2.40
2023-04-28T06:22:12.229Z,3.10
2023-04-28T06:23:15.120Z,2.10
2023-04-28T06:24:22.588Z,2.40
2023-04-28T06:25:26.625Z,2.90
2023-04-28T06:26:29.566Z,3.20
2023-04-28T06:27:32.133Z,2.30
2023-04-28T06:28:34.407Z,1.90
2023-04-28T06:29:36.609Z,1.50
2023-04-28T06:30:38.870Z,0.90
2023-04-28T06:31:41.186Z,1.80
2023-04-28T06:32:43.518Z,1.90
2023-04-28T06:33:45.751Z,2.00
2023-04-28T06:34:48.656Z,2.00
2023-04-28T06:37:07.097Z,2.40
2023-04-28T06:38:09.865Z,1.70
2023-04-28T06:39:12.689Z,2.00
2023-04-28T06:40:15.042Z,2.80
2023-04-28T06:41:19.418Z,2.30
2023-04-28T06:42:23.543Z,2.10
2023-04-28T06:43:33.414Z,2.50
2023-04-28T06:44:38.069Z,1.40
2023-04-28T06:45:41.253Z,1.90
2023-04-28T06:47:54.102Z,2.00
2023-04-28T06:48:56.535Z,2.50
2023-04-28T06:49:58.930Z,1.40
2023-04-28T06:51:01.165Z,2.60
2023-04-28T06:52:03.375Z,1.90
2023-04-28T06:53:06.845Z,2.10
2023-04-28T06:54:10.184Z,1.90
2023-04-28T06:55:15.198Z,1.60
2023-04-28T06:56:17.875Z,1.90
2023-04-28T06:58:29.987Z,2.00
2023-04-28T06:59:32.698Z,2.20
2023-04-28T07:00:35.136Z,1.60
2023-04-28T07:01:37.433Z,1.20
2023-04-28T07:02:39.908Z,1.60
2023-04-28T07:03:42.737Z,1.50
2023-04-28T07:04:45.285Z,1.55
2023-04-28T07:05:47.356Z,2.10
2023-04-28T07:06:49.895Z,1.90
2023-04-28T07:07:54.299Z,2.30
2023-04-28T07:08:56.428Z,1.90
2023-04-28T07:09:58.633Z,1.40
2023-04-28T07:11:00.896Z,1.50
2023-04-28T07:12:03.668Z,2.00
2023-04-28T07:14:15.402Z,1.90
2023-04-28T07:15:18.886Z,1.70
2023-04-28T07:16:21.058Z,1.80
2023-04-28T07:17:23.537Z,1.70
2023-04-28T07:18:26.251Z,1.00
2023-04-28T07:19:28.784Z,1.60
2023-04-28T07:20:30.965Z,1.70
2023-04-28T07:21:33.619Z,1.00
2023-04-28T07:22:35.698Z,1.40
2023-04-28T07:23:38.321Z,2.10
2023-04-28T07:24:40.488Z,1.30
2023-04-28T07:25:43.060Z,1.80
2023-04-28T07:28:03.828Z,1.60
2023-04-28T07:29:05.985Z,1.50
2023-04-28T07:30:24.983Z,1.60
2023-04-28T07:31:13.186Z,1.50
2023-04-28T07:32:15.583Z,1.80
2023-04-28T07:34:28.330Z,0.70
2023-04-28T07:35:30.548Z,1.60
2023-04-28T07:36:32.854Z,1.00
2023-04-28T07:37:36.066Z,0.70
2023-04-28T07:38:38.280Z,0.50
2023-04-28T07:39:41.803Z,1.20
2023-04-28T07:40:44.709Z,1.00
2023-04-28T07:41:46.918Z,1.80
2023-04-28T07:42:49.188Z,1.50
2023-04-28T07:43:52.378Z,1.40
2023-04-28T07:44:54.453Z,1.00
2023-04-28T07:45:56.760Z,1.40
2023-04-28T07:46:59.800Z,1.00
2023-04-28T07:48:02.273Z,0.70
2023-04-28T07:49:04.689Z,1.10
2023-04-28T07:50:09.613Z,2.00
2023-04-28T07:51:11.940Z,1.30
2023-04-28T07:52:14.091Z,0.40
2023-04-28T07:53:17.479Z,1.20
2023-04-28T07:54:19.882Z,1.30
2023-04-28T07:55:22.579Z,0.00
2023-04-28T07:56:24.932Z,0.50
2023-04-28T07:57:27.503Z,0.60
2023-04-28T07:58:31.628Z,0.80
2023-04-28T07:59:34.698Z,1.10
2023-04-28T08:00:38.630Z,1.00
2023-04-28T08:01:41.446Z,1.00
2023-04-28T08:02:43.661Z,1.70
2023-04-28T08:03:46.419Z,1.20
2023-04-28T08:04:54.380Z,1.09
2023-04-28T08:05:58.534Z,1.00
2023-04-28T08:07:02.363Z,0.80
2023-04-28T08:08:07.893Z,1.10
2023-04-28T08:09:13.120Z,0.80
2023-04-28T08:10:19.648Z,1.50
2023-04-28T08:11:22.299Z,2.00
2023-04-28T08:12:24.413Z,0.80
2023-04-28T08:13:27.364Z,0.70
2023-04-28T08:14:33.181Z,0.91
2023-04-28T08:15:35.864Z,1.60
2023-04-28T08:16:38.946Z,0.90
2023-04-28T08:17:45.884Z,0.70
2023-04-28T08:18:48.184Z,1.30
2023-04-28T08:19:51.250Z,0.80
2023-04-28T08:20:54.626Z,0.70
2023-04-28T08:21:56.697Z,0.70
2023-04-28T08:22:59.343Z,0.70
2023-04-28T08:24:01.452Z,0.70
2023-04-28T08:25:06.028Z,0.50
2023-04-28T08:26:08.595Z,0.00
2023-04-28T08:27:11.364Z,0.90
2023-04-28T08:28:14.005Z,0.64
2023-04-28T08:29:19.060Z,0.70
2023-04-28T08:30:25.309Z,0.80
2023-04-28T08:31:28.199Z,0.90
2023-04-28T08:33:50.055Z,0.80
2023-04-28T08:34:54.374Z,0.90
2023-04-28T08:35:57.180Z,0.70
2023-04-28T08:37:01.231Z,0.70
2023-04-28T08:38:04.745Z,0.80
2023-04-28T08:39:07.685Z,0.50
2023-04-28T08:40:13.540Z,0.70
2023-04-28T08:41:17.500Z,0.40
2023-04-28T08:42:20.004Z,0.70
2023-04-28T08:43:22.940Z,0.70
2023-04-28T08:44:28.683Z,0.64
2023-04-28T08:45:32.755Z,1.00
2023-04-28T08:46:36.789Z,0.70
2023-04-28T08:47:44.199Z,1.20
2023-04-28T08:48:48.988Z,0.80
2023-04-28T08:49:53.398Z,0.60
2023-04-28T08:50:58.375Z,1.20
2023-04-28T08:52:00.970Z,0.90
2023-04-28T08:53:04.061Z,1.09
2023-04-28T08:55:13.735Z,2.50
2023-04-28T08:56:17.959Z,2.30
2023-04-28T08:57:20.432Z,2.40
2023-04-28T08:58:24.003Z,3.20
2023-04-28T08:59:26.462Z,2.70
2023-04-28T09:00:29.174Z,3.60
2023-04-28T09:01:32.946Z,1.80
2023-04-28T09:02:36.651Z,2.80
2023-04-28T09:03:40.058Z,3.10
2023-04-28T09:04:43.102Z,2.60
2023-04-28T09:05:46.480Z,2.70
2023-04-28T09:06:50.544Z,2.73
2023-04-28T09:07:53.821Z,2.10
2023-04-28T09:10:19.501Z,2.00
2023-04-28T09:11:23.901Z,1.70
2023-04-28T09:13:40.873Z,1.80
2023-04-28T09:14:44.042Z,1.40
2023-04-28T09:15:48.026Z,1.60
2023-04-28T09:16:50.777Z,1.60
2023-04-28T09:17:54.166Z,1.73
2023-04-28T09:18:57.675Z,1.40
2023-04-28T09:20:04.189Z,2.20
2023-04-28T09:21:12.441Z,1.50
2023-04-28T09:23:24.874Z,1.20
2023-04-28T09:24:52.961Z,1.10
2023-04-28T09:27:21.701Z,2.00
2023-04-28T09:28:24.755Z,1.20
2023-04-28T09:29:34.800Z,1.20
2023-04-28T09:30:39.418Z,1.40
2023-04-28T09:31:41.783Z,1.30
2023-04-28T09:33:04.414Z,0.30
2023-04-28T09:34:08.409Z,1.20
2023-04-28T09:35:14.022Z,1.30
2023-04-28T09:36:20.203Z,1.50
2023-04-28T09:37:29.711Z,0.80
2023-04-28T09:38:39.500Z,1.10
2023-04-28T09:39:44.991Z,0.70
2023-04-28T09:42:34.278Z,2.00
2023-04-28T09:43:39.695Z,1.50
2023-04-28T09:44:48.790Z,1.60
2023-04-28T09:45:50.993Z,1.10
2023-04-28T09:46:53.534Z,0.70
2023-04-28T09:47:59.649Z,0.10
2023-04-28T09:49:03.257Z,0.50
2023-04-28T09:50:07.820Z,0.80
2023-04-28T09:51:19.369Z,0.80
2023-04-28T09:52:22.841Z,0.70
2023-04-28T09:53:27.996Z,1.40
2023-04-28T09:54:30.634Z,0.80
2023-04-28T09:55:38.777Z,0.70
2023-04-28T09:56:44.405Z,1.20
2023-04-28T09:57:50.400Z,0.70
2023-04-28T09:58:53.531Z,1.10
2023-04-28T10:00:00.506Z,1.10
2023-04-28T10:01:06.643Z,1.00
2023-04-28T10:02:28.809Z,1.40
2023-04-28T10:03:17.215Z,1.30
2023-04-28T10:04:21.924Z,0.70
2023-04-28T10:05:26.076Z,0.50
2023-04-28T10:06:38.974Z,0.70
2023-04-28T10:07:42.013Z,0.90
2023-04-28T10:08:44.233Z,1.36
2023-04-28T10:09:51.927Z,1.50
2023-04-28T10:10:57.513Z,0.70
2023-04-28T10:12:01.577Z,0.70
2023-04-28T10:13:08.119Z,1.00
2023-04-28T10:14:11.663Z,0.90
2023-04-28T10:15:16.866Z,0.80
2023-04-28T10:16:21.070Z,1.20
2023-04-28T10:17:23.806Z,0.90
2023-04-28T10:18:30.763Z,0.60
2023-04-28T10:19:35.168Z,0.60
2023-04-28T10:20:45.232Z,0.50
2023-04-28T10:21:52.372Z,1.40
2023-04-28T10:23:33.930Z,1.10
2023-04-28T10:25:55.834Z,1.30
2023-04-28T10:27:06.095Z,1.30
2023-04-28T10:28:09.881Z,1.30
2023-04-28T10:29:12.586Z,1.60
2023-04-28T10:30:28.103Z,0.73
2023-04-28T10:32:44.329Z,2.00
2023-04-28T10:33:48.106Z,1.10
2023-04-28T10:34:50.725Z,1.20
2023-04-28T10:35:53.519Z,1.10
2023-04-28T10:36:56.753Z,0.90
2023-04-28T10:38:05.554Z,1.10
2023-04-28T10:39:10.117Z,1.10
2023-04-28T10:40:34.639Z,1.20
2023-04-28T10:41:40.930Z,1.80
2023-04-28T10:42:56.735Z,1.50
2023-04-28T10:45:13.529Z,1.90
2023-04-28T10:46:17.889Z,0.70
2023-04-28T10:47:20.089Z,1.50
2023-04-28T10:48:31.842Z,0.40
2023-04-28T10:49:56.307Z,0.70
2023-04-28T10:52:40.178Z,0.50
2023-04-28T10:53:46.797Z,0.90
2023-04-28T10:55:28.225Z,0.70
2023-04-28T10:56:31.401Z,0.60
2023-04-28T10:57:33.577Z,0.70
2023-04-28T10:59:49.526Z,0.90
2023-04-28T11:00:53.916Z,0.60
2023-04-28T11:01:59.775Z,1.09
2023-04-28T11:03:02.149Z,0.70
2023-04-28T11:04:08.577Z,0.90
2023-04-28T11:05:12.578Z,0.60
2023-04-28T11:06:33.331Z,0.90
2023-04-28T11:07:35.457Z,0.70
2023-04-28T11:08:37.930Z,0.50
2023-04-28T11:09:43.983Z,0.90
2023-04-28T11:11:11.383Z,0.80
2023-04-28T11:12:13.714Z,1.60
2023-04-28T11:15:02.262Z,1.40
2023-04-28T11:16:05.037Z,1.20
2023-04-28T11:17:11.538Z,0.45
2023-04-28T11:18:15.623Z,0.90
2023-04-28T11:19:23.475Z,0.30
2023-04-28T11:20:27.329Z,0.70
2023-04-28T11:21:30.678Z,0.70
2023-04-28T11:22:34.011Z,0.70
2023-04-28T11:23:36.435Z,0.70
2023-04-28T11:24:38.711Z,0.80
2023-04-28T11:25:56.613Z,0.20
2023-04-28T11:26:59.453Z,1.20
2023-04-28T11:28:04.869Z,0.27
2023-04-28T11:29:07.718Z,0.50
2023-04-28T11:30:21.062Z,0.64
2023-04-28T11:31:25.126Z,0.70
2023-04-28T11:33:42.066Z,1.50
2023-04-28T11:34:47.865Z,1.10
2023-04-28T11:35:51.198Z,1.20
2023-04-28T11:36:54.976Z,1.00
2023-04-28T11:38:03.559Z,1.00
2023-04-28T11:39:08.110Z,0.80
2023-04-28T11:40:12.251Z,1.40
2023-04-28T11:41:14.532Z,0.70
2023-04-28T11:42:16.582Z,1.40
2023-04-28T11:43:22.336Z,0.80
2023-04-28T11:44:27.190Z,0.40
2023-04-28T11:45:31.760Z,0.70
2023-04-28T11:46:33.986Z,1.00
2023-04-28T11:47:36.184Z,1.40
2023-04-28T11:48:38.561Z,1.40
2023-04-28T11:49:45.630Z,1.10
2023-04-28T11:50:48.935Z,1.00
2023-04-28T11:51:51.632Z,1.10
2023-04-28T11:52:54.080Z,0.82
2023-04-28T11:53:56.939Z,0.90
2023-04-28T11:55:00.387Z,1.00
2023-04-28T11:56:06.693Z,0.70
2023-04-28T11:57:20.914Z,1.10
2023-04-28T11:58:23.462Z,1.10
2023-04-28T11:59:30.581Z,1.40
2023-04-28T12:00:33.300Z,1.00
2023-04-28T12:01:56.321Z,1.00
2023-04-28T12:03:05.185Z,0.80
2023-04-28T12:05:21.226Z,1.90
2023-04-28T12:06:24.615Z,1.20
2023-04-28T12:07:26.690Z,1.30
2023-04-28T12:08:33.491Z,0.70
2023-04-28T12:09:40.028Z,0.80
2023-04-28T12:10:52.012Z,1.20
2023-04-28T12:12:00.907Z,0.80
2023-04-28T12:13:17.426Z,1.00
2023-04-28T12:14:22.143Z,0.70
2023-04-28T12:15:32.113Z,1.00
2023-04-28T12:16:42.285Z,1.40
2023-04-28T12:17:44.671Z,1.30
2023-04-28T12:18:58.495Z,1.00
2023-04-28T12:20:05.634Z,0.80
2023-04-28T12:21:11.391Z,0.70
2023-04-28T12:22:15.277Z,1.10
2023-04-28T12:23:38.943Z,0.70
2023-04-28T12:24:41.187Z,0.70
2023-04-28T12:25:46.004Z,0.90
2023-04-28T12:26:49.650Z,0.90
2023-04-28T12:28:07.154Z,1.40
2023-04-28T12:29:09.990Z,1.50
2023-04-28T12:30:22.867Z,1.20
2023-04-28T12:31:25.214Z,1.50
2023-04-28T12:33:51.675Z,2.30
2023-04-28T12:34:54.098Z,1.70
2023-04-28T12:35:57.505Z,1.50
2023-04-28T12:38:12.543Z,2.30
2023-04-28T12:39:15.126Z,1.10
2023-04-28T12:40:17.396Z,1.70
2023-04-28T12:41:19.448Z,1.70
2023-04-28T12:42:21.739Z,1.50
2023-04-28T12:43:24.739Z,0.90
2023-04-28T12:44:26.851Z,1.55
2023-04-28T12:45:30.721Z,1.30
2023-04-28T12:46:32.955Z,1.70
2023-04-28T12:47:35.896Z,1.50
2023-04-28T12:48:38.549Z,0.73
2023-04-28T12:49:41.003Z,1.73
2023-04-28T12:50:43.331Z,0.70
2023-04-28T12:51:45.484Z,1.50
2023-04-28T12:52:47.731Z,0.70
2023-04-28T12:53:56.312Z,0.60
2023-04-28T12:56:11.876Z,0.80
2023-04-28T12:58:34.764Z,0.70
2023-04-28T12:59:36.925Z,0.70
2023-04-28T13:00:39.549Z,0.50
2023-04-28T13:01:41.632Z,0.70
2023-04-28T13:02:44.415Z,0.70
2023-04-28T13:03:48.233Z,0.91
2023-04-28T13:04:51.060Z,1.20
2023-04-28T13:05:54.064Z,1.00
2023-04-28T13:06:57.124Z,0.00
2023-04-28T13:07:59.614Z,0.70
2023-04-28T13:09:02.416Z,1.00
2023-04-28T13:10:05.925Z,0.91
2023-04-28T13:11:22.006Z,1.00
2023-04-28T13:12:13.881Z,0.50
2023-04-28T13:13:16.638Z,1.00
2023-04-28T13:14:22.314Z,0.70
2023-04-28T13:15:24.433Z,1.00
2023-04-28T13:16:26.611Z,1.20
2023-04-28T13:17:29.918Z,0.70
2023-04-28T13:18:33.251Z,0.70
2023-04-28T13:19:35.451Z,0.90
2023-04-28T13:20:39.361Z,1.10
2023-04-28T13:21:41.413Z,0.70
2023-04-28T13:22:43.717Z,1.10
2023-04-28T13:23:45.873Z,0.70
2023-04-28T13:24:48.636Z,1.10
2023-04-28T13:25:51.640Z,0.82
2023-04-28T13:26:53.710Z,1.10
2023-04-28T13:27:55.927Z,0.80
2023-04-28T13:28:58.646Z,1.70
2023-04-28T13:30:10.590Z,0.90
2023-04-28T13:31:16.996Z,0.90
2023-04-28T13:32:19.149Z,1.10
2023-04-28T13:33:21.320Z,0.20
2023-04-28T13:34:24.569Z,1.20
2023-04-28T13:35:29.077Z,0.60
2023-04-28T13:36:33.801Z,1.00
2023-04-28T13:37:36.082Z,0.70
2023-04-28T13:38:40.024Z,1.30
2023-04-28T13:39:42.933Z,0.70
2023-04-28T13:40:46.909Z,0.90
2023-04-28T13:41:49.856Z,0.60
2023-04-28T13:42:52.616Z,1.60
2023-04-28T13:43:54.782Z,0.70
2023-04-28T13:44:57.297Z,1.20
2023-04-28T13:46:01.889Z,1.60
2023-04-28T13:47:05.161Z,0.80
2023-04-28T13:48:20.256Z,1.00
2023-04-28T13:50:34.654Z,1.00
2023-04-28T13:51:37.072Z,1.70
2023-04-28T13:52:39.353Z,1.50
2023-04-28T13:53:44.943Z,1.10
2023-04-28T13:54:47.295Z,0.70
2023-04-28T13:55:53.762Z,1.20
2023-04-28T13:56:58.528Z,1.10
2023-04-28T13:58:02.666Z,0.82
2023-04-28T13:59:06.735Z,0.70
2023-04-28T14:00:12.860Z,1.10
2023-04-28T14:01:15.416Z,0.70
2023-04-28T14:02:19.714Z,1.90
2023-04-28T14:03:23.822Z,1.00
2023-04-28T14:04:30.828Z,0.90
2023-04-28T14:06:52.924Z,1.10
2023-04-28T14:07:56.831Z,0.90
2023-04-28T14:09:02.454Z,0.90
2023-04-28T14:10:06.866Z,0.70
2023-04-28T14:11:10.515Z,1.20
2023-04-28T14:12:15.118Z,0.90
2023-04-28T14:13:19.890Z,0.45
2023-04-28T14:14:24.045Z,1.20
2023-04-28T14:15:26.154Z,0.70
2023-04-28T14:16:28.855Z,1.00
2023-04-28T14:17:31.014Z,0.70
2023-04-28T14:18:33.387Z,0.50
2023-04-28T14:19:37.689Z,0.80
2023-04-28T14:20:40.964Z,1.40
2023-04-28T14:21:46.946Z,0.90
2023-04-28T14:22:50.633Z,0.90
2023-04-28T14:23:52.917Z,0.40
2023-04-28T14:24:58.345Z,1.40
2023-04-28T14:26:01.866Z,1.33
2023-04-28T14:27:04.148Z,1.10
2023-04-28T14:28:06.391Z,0.90
2023-04-28T14:29:10.031Z,0.70
2023-04-28T14:30:13.718Z,0.70
2023-04-28T14:31:18.078Z,1.20
2023-04-28T14:32:22.639Z,1.30
2023-04-28T14:33:25.557Z,1.40
2023-04-28T14:34:33.188Z,1.40
2023-04-28T14:35:35.844Z,1.10
2023-04-28T14:36:40.056Z,0.10
2023-04-28T14:37:44.063Z,1.00
2023-04-28T14:38:49.212Z,0.70
2023-04-28T14:39:51.508Z,0.70
2023-04-28T14:40:54.403Z,0.70
2023-04-28T14:41:59.259Z,0.64
2023-04-28T14:43:03.358Z,1.00
2023-04-28T14:44:08.545Z,0.40
2023-04-28T14:45:11.330Z,0.80
2023-04-28T14:46:13.730Z,1.60
2023-04-28T14:47:18.608Z,0.70
2023-04-28T14:48:22.438Z,1.20
2023-04-28T14:49:29.478Z,1.50
2023-04-28T14:50:32.262Z,1.60
2023-04-28T14:51:36.029Z,1.70
2023-04-28T14:52:38.980Z,1.10
2023-04-28T14:53:43.027Z,1.10
2023-04-28T14:54:46.634Z,0.90
2023-04-28T14:55:50.212Z,1.20
2023-04-28T14:56:54.558Z,1.50
2023-04-28T14:57:56.604Z,1.80
2023-04-28T14:58:59.929Z,1.00
2023-04-28T15:01:27.037Z,1.60